Santa Rosa — A8ZS7 — position and weather

sailwx.info

Track history (hours):
 
Tides and Currents Weather Stations Pressure Air Temp Water Temp Dewpoint Dewpoint Depression Visibility Wind Speed Wind Dir Waves Ship Positions

Santa Rosa

Last reported at 2015-Sep-01 22:33 UTC. Time now 2015-Sep-02 00:24 UTC.
Position N 30°36' E 122°05'.

Length 300 m; draft 11.4 m.

Type: Ship (hazmat cat D). MMSI: 636092266.

Date/timePositionNaut miles runAvg speedWind from/ knotsBaromVisibWave heightAir tempDewpointWater temp
2015-Sep-01 22:33N 30°36' E 122°05'0 0.0
2015-Sep-01 21:33N 30°36' E 122°05'0 0.0
2015-Sep-01 17:23N 30°36' E 122°05'0 0.0
2015-Sep-01 16:23N 30°36' E 122°05'0 0.0
2015-Sep-01 14:26N 30°36' E 122°05'0 0.0
2015-Sep-01 13:19N 30°36' E 122°05'0 0.0
2015-Sep-01 12:32N 30°36' E 122°05'0 0.0
2015-Sep-01 05:15N 30°36' E 122°05'811.8
2015-Sep-01 04:32N 30°33' E 122°14'1311.7
2015-Sep-01 03:24N 30°32' E 122°30'12 0.8
2015-Aug-31 13:11N 30°26' E 122°41'912.9
2015-Aug-31 12:29N 30°23' E 122°51'48 9.5
2015-Aug-31 07:25N 29°38' E 122°30'1714.2
2015-Aug-31 06:11N 29°49' E 122°14'6 8.4
2015-Aug-31 05:28N 29°48' E 122°07'3 0.2
2015-Aug-30 13:13N 29°47' E 122°03'810.9
2015-Aug-30 12:28N 29°51' E 122°12'39814.7
2015-Aug-29 09:24N 24°11' E 118°20'1214.5
2015-Aug-29 08:33N 24°20' E 118°11'1111.5
2015-Aug-29 07:33N 24°29' E 118°04'1 1.4
2015-Aug-29 06:33N 24°31' E 118°05'0 0.0
2015-Aug-29 05:05N 24°31' E 118°05'0 0.0
2015-Aug-29 03:29N 24°31' E 118°05'0 0.0
2015-Aug-29 02:32N 24°31' E 118°05'0 0.0
2015-Aug-29 01:20N 24°31' E 118°05'0 0.0
2015-Aug-29 00:32N 24°31' E 118°05'0 0.0
2015-Aug-28 23:32N 24°31' E 118°05'0 0.0
2015-Aug-28 22:32N 24°31' E 118°05'0 0.0
2015-Aug-28 21:32N 24°31' E 118°05'0 0.0
2015-Aug-28 20:23N 24°31' E 118°05'0 0.0
2015-Aug-28 19:29N 24°31' E 118°05'0 0.2
2015-Aug-28 18:33N 24°31' E 118°05'7 7.4
2015-Aug-28 17:33N 24°23' E 118°07'1211.9
2015-Aug-28 16:33N 24°15' E 118°15'8 5.2
2015-Aug-28 15:05N 24°13' E 118°24'2 2.0
2015-Aug-28 14:11N 24°13' E 118°22'2 0.6
2015-Aug-28 10:29N 24°11' E 118°24'2 1.6
2015-Aug-28 09:09N 24°10' E 118°22'712.0
2015-Aug-28 08:32N 24°04' E 118°17'1312.8
2015-Aug-28 07:32N 23°55' E 118°07'1211.8
2015-Aug-28 06:33N 23°46' E 117°59'211 6.8
2015-Aug-26 23:25N 22°19' E 114°31'1112.2
2015-Aug-26 22:32N 22°08' E 114°28'1711.7
2015-Aug-26 21:05N 22°13' E 114°10'5 9.7
2015-Aug-26 20:33N 22°16' E 114°06'4 4.3
2015-Aug-26 19:33N 22°20' E 114°07'0 0.0
2015-Aug-26 18:32N 22°20' E 114°07'0 0.0
2015-Aug-26 17:33N 22°20' E 114°07'0 0.0
2015-Aug-26 16:24N 22°20' E 114°07'0 0.0
2015-Aug-26 03:06N 22°20' E 114°07'2 4.2
2015-Aug-26 02:34N 22°19' E 114°06'1310.3
2015-Aug-26 01:17N 22°08' E 114°15'710.1
2015-Aug-26 00:33N 22°08' E 114°23'1212.4
2015-Aug-25 23:33N 22°10' E 114°36'19713.9
2015-Aug-25 09:21N 23°30' E 117°51'1515.2
2015-Aug-25 08:23N 23°37' E 118°05'7216.7
2015-Aug-25 04:03N 24°15' E 119°13'  
Track history (hours):
 
Tides and Currents Weather Stations Pressure Air Temp Water Temp Dewpoint Dewpoint Depression Visibility Wind Speed Wind Dir Waves Ship Positions

Santa Rosa

Last reported at 2015-Sep-01 22:33 UTC. Time now 2015-Sep-02 00:24 UTC.
Position N 30°36' E 122°05'.

Length 300 m; draft 11.4 m.

Type: Ship (hazmat cat D). MMSI: 636092266.

Date/timePositionNaut miles runAvg speedWind from/ knotsBaromVisibWave heightAir tempDewpointWater temp
2015-Sep-01 22:33N 30°36' E 122°05'0 0.0
2015-Sep-01 21:33N 30°36' E 122°05'0 0.0
2015-Sep-01 17:23N 30°36' E 122°05'0 0.0
2015-Sep-01 16:23N 30°36' E 122°05'0 0.0
2015-Sep-01 14:26N 30°36' E 122°05'0 0.0
2015-Sep-01 13:19N 30°36' E 122°05'0 0.0
2015-Sep-01 12:32N 30°36' E 122°05'0 0.0
2015-Sep-01 05:15N 30°36' E 122°05'811.8
2015-Sep-01 04:32N 30°33' E 122°14'1311.7
2015-Sep-01 03:24N 30°32' E 122°30'12 0.8
2015-Aug-31 13:11N 30°26' E 122°41'912.9
2015-Aug-31 12:29N 30°23' E 122°51'48 9.5
2015-Aug-31 07:25N 29°38' E 122°30'1714.2
2015-Aug-31 06:11N 29°49' E 122°14'6 8.4
2015-Aug-31 05:28N 29°48' E 122°07'3 0.2
2015-Aug-30 13:13N 29°47' E 122°03'810.9
2015-Aug-30 12:28N 29°51' E 122°12'39814.7
2015-Aug-29 09:24N 24°11' E 118°20'1214.5
2015-Aug-29 08:33N 24°20' E 118°11'1111.5
2015-Aug-29 07:33N 24°29' E 118°04'1 1.4
2015-Aug-29 06:33N 24°31' E 118°05'0 0.0
2015-Aug-29 05:05N 24°31' E 118°05'0 0.0
2015-Aug-29 03:29N 24°31' E 118°05'0 0.0
2015-Aug-29 02:32N 24°31' E 118°05'0 0.0
2015-Aug-29 01:20N 24°31' E 118°05'0 0.0
2015-Aug-29 00:32N 24°31' E 118°05'0 0.0
2015-Aug-28 23:32N 24°31' E 118°05'0 0.0
2015-Aug-28 22:32N 24°31' E 118°05'0 0.0
2015-Aug-28 21:32N 24°31' E 118°05'0 0.0
2015-Aug-28 20:23N 24°31' E 118°05'0 0.0
2015-Aug-28 19:29N 24°31' E 118°05'0 0.2
2015-Aug-28 18:33N 24°31' E 118°05'7 7.4
2015-Aug-28 17:33N 24°23' E 118°07'1211.9
2015-Aug-28 16:33N 24°15' E 118°15'8 5.2
2015-Aug-28 15:05N 24°13' E 118°24'2 2.0
2015-Aug-28 14:11N 24°13' E 118°22'2 0.6
2015-Aug-28 10:29N 24°11' E 118°24'2 1.6
2015-Aug-28 09:09N 24°10' E 118°22'712.0
2015-Aug-28 08:32N 24°04' E 118°17'1312.8
2015-Aug-28 07:32N 23°55' E 118°07'1211.8
2015-Aug-28 06:33N 23°46' E 117°59'211 6.8
2015-Aug-26 23:25N 22°19' E 114°31'1112.2
2015-Aug-26 22:32N 22°08' E 114°28'1711.7
2015-Aug-26 21:05N 22°13' E 114°10'5 9.7
2015-Aug-26 20:33N 22°16' E 114°06'4 4.3
2015-Aug-26 19:33N 22°20' E 114°07'0 0.0
2015-Aug-26 18:32N 22°20' E 114°07'0 0.0
2015-Aug-26 17:33N 22°20' E 114°07'0 0.0
2015-Aug-26 16:24N 22°20' E 114°07'0 0.0
2015-Aug-26 03:06N 22°20' E 114°07'2 4.2
2015-Aug-26 02:34N 22°19' E 114°06'1310.3
2015-Aug-26 01:17N 22°08' E 114°15'710.1
2015-Aug-26 00:33N 22°08' E 114°23'1212.4
2015-Aug-25 23:33N 22°10' E 114°36'19713.9
2015-Aug-25 09:21N 23°30' E 117°51'1515.2
2015-Aug-25 08:23N 23°37' E 118°05'7216.7
2015-Aug-25 04:03N 24°15' E 119°13'  

Dump ship's entire track history